< Typhoon 201621 2016 Season Typhoon 201623 >
Typhoon 201622 (HAIMA)
General InformationTrack Information on Google MapsDetailed Wind InformationForecast History on Google MapsAccess Analytics MapList of All Images || NewsDisaster Info.WeblogTrackbackTyphoon FrontTwiphoonTyphoon Now!Typhoon ImaginationDisaster Info. XMLResourceGoogle EarthGE AnimationAtom FeedGeoJSON
Detalied Best Track (Time Zone = UTC)
Year Month Day Hour Lat. Long. Pressure (hPa) Wind (kt) Class Image Chart
2016 10 14 12 7.4 144.5 1004 0 2 Image Chart
2016 10 14 18 8.2 143.6 1004 0 2 Image Chart
2016 10 15 00 8.8 142.9 1000 35 3 Image Chart
2016 10 15 06 9.1 142.1 996 40 3 Image Chart
2016 10 15 12 9.5 140.7 992 45 3 Image Chart
2016 10 15 18 9.7 140.0 985 50 4 Image Chart
2016 10 16 00 9.9 139.6 980 55 4 Image Chart
2016 10 16 06 10.4 139.1 975 65 5 Image Chart
2016 10 16 12 11.3 138.7 970 70 5 Image Chart
2016 10 16 18 12.3 137.8 960 80 5 Image Chart
2016 10 17 00 12.9 136.7 955 85 5 Image Chart
2016 10 17 06 13.4 135.5 950 90 5 Image Chart
2016 10 17 12 13.8 134.5 945 95 5 Image Chart
2016 10 17 18 14.4 133.3 925 100 5 Image Chart
2016 10 18 00 14.9 132.1 925 100 5 Image Chart
2016 10 18 06 15.4 130.7 915 105 5 Image Chart
2016 10 18 12 15.6 129.1 910 110 5 Image Chart
2016 10 18 18 16.0 127.5 900 115 5 Image Chart
2016 10 19 00 16.1 126.0 900 115 5 Image Chart
2016 10 19 06 16.7 124.7 900 115 5 Image Chart
2016 10 19 12 17.3 123.1 915 100 5 Image Chart
2016 10 19 18 17.7 121.5 940 90 5 Image Chart
2016 10 20 00 18.4 120.1 945 80 5 Image Chart
2016 10 20 06 19.0 118.8 950 75 5 Image Chart
2016 10 20 12 19.8 117.4 960 70 5 Image Chart
2016 10 20 18 20.6 116.6 960 70 5 Image Chart
2016 10 21 00 22.1 115.6 970 60 4 Image Chart
2016 10 21 06 23.2 115.1 980 45 3 Image Chart
2016 10 21 12 24.3 114.7 992 35 3 Image Chart
2016 10 21 18 25.9 115.5 998 0 2 Image Chart
2016 10 22 00 27.4 116.4 1004 0 6 Image Chart
2016 10 22 06 28.9 119.4 1004 0 6 Image Chart
2016 10 22 12 30.2 121.4 1004 0 6 Image Chart
2016 10 22 18 30.5 123.1 1004 0 6 Image Chart
2016 10 23 00 29.9 126.1 1002 0 6 Image Chart
2016 10 23 06 29.4 129.3 1002 0 6 Image Chart
2016 10 23 12 29.4 133.5 1002 0 6 Image Chart
2016 10 23 18 29.5 136.6 1000 0 6 Image Chart
2016 10 24 00 29.2 140.2 1002 0 6 Image Chart
2016 10 24 06 28.9 142.5 1002 0 6 Image Chart
2016 10 24 12 28.7 145.2 1006 0 6 Image Chart
2016 10 24 18 28.3 147.1 1008 0 6 Image Chart
2016 10 25 00 27.5 146.0 1012 0 6 Image Chart
2016 10 25 06 26.7 144.9 1010 0 6 Image Chart
2016 10 25 12 26.9 144.7 1012 0 6 Image Chart
2016 10 25 18 27.1 144.4 1012 0 6 Image Chart
2016 10 26 00 27.3 145.0 1014 0 6 Image Chart
2016 10 26 06 27.8 145.4 1012 0 6 Image Chart
Japan Meteorological Agency Best Track Data | Correction Date : 2016-11-22
< Typhoon 201621 2016 Season Typhoon 201623 >

Help